Time;durP1;ratioP1;P1;durP2;ratioP2;P2;SDS_P1;SDS_P2;PMS_P1;PMS_P2;Temp;Humidity;BMP_temperature;BMP_pressure;BME280_temperature;BME280_humidity;BME280_pressure;Samples;Min_cycle;Max_cycle;Signal;HPM_P1;HPM_P2
2021/12/22 00:04:43;;;;;;;22.00;12.10;;;-3.40;99.90;;;;;;12486436;28;20112;-37
2021/12/22 00:10:47;;;;;;;21.38;12.25;;;-3.20;99.90;;;;;;12494703;28;20045;-35
2021/12/22 00:16:49;;;;;;;18.90;11.80;;;-3.30;99.90;;;;;;12493974;28;20076;-36
2021/12/22 00:22:52;;;;;;;22.70;12.82;;;-3.40;99.90;;;;;;12491272;28;20563;-37
2021/12/22 00:28:54;;;;;;;23.63;13.32;;;-3.50;99.90;;;;;;12491795;28;20152;-38
2021/12/22 00:34:56;;;;;;;27.15;13.30;;;-3.70;99.90;;;;;;12491279;28;20191;-38
2021/12/22 00:40:58;;;;;;;31.30;14.65;;;-3.70;99.90;;;;;;12489300;28;20049;-36
2021/12/22 00:47:01;;;;;;;25.65;14.10;;;-3.60;99.90;;;;;;12489279;28;20542;-38
2021/12/22 00:53:05;;;;;;;24.42;13.68;;;-3.60;99.90;;;;;;12491784;28;20068;-36
2021/12/22 00:59:07;;;;;;;23.10;13.83;;;-3.30;99.90;;;;;;12495202;28;20049;-36
2021/12/22 01:05:12;;;;;;;20.92;12.23;;;-3.50;99.90;;;;;;12496395;28;20057;-37
2021/12/22 01:11:14;;;;;;;25.05;13.15;;;-3.30;99.90;;;;;;12500347;28;20065;-38
2021/12/22 01:17:17;;;;;;;22.30;12.70;;;-3.30;99.90;;;;;;12503719;28;20045;-37
2021/12/22 01:23:20;;;;;;;21.10;12.18;;;-3.30;99.90;;;;;;12500264;28;20090;-38
2021/12/22 01:29:23;;;;;;;23.52;13.30;;;-3.40;99.90;;;;;;12497492;28;20106;-37
2021/12/22 01:35:28;;;;;;;22.92;11.95;;;-3.40;99.90;;;;;;12499527;28;20053;-36
2021/12/22 01:41:31;;;;;;;19.13;11.85;;;-3.50;99.90;;;;;;12503318;28;20145;-37
2021/12/22 01:54:00;;;;;;;27.38;11.10;;;-3.40;99.90;;;;;;12497086;28;20052;-37
2021/12/22 02:00:04;;;;;;;22.60;12.55;;;-3.40;99.90;;;;;;12500716;28;20042;-36
2021/12/22 02:06:08;;;;;;;16.52;10.57;;;-3.60;99.90;;;;;;12497209;28;20054;-37
2021/12/22 02:12:12;;;;;;;20.92;10.40;;;-3.70;99.90;;;;;;12495092;28;20100;-36
2021/12/22 02:18:20;;;;;;;15.63;8.55;;;-3.90;99.90;;;;;;12495296;28;20041;-36
2021/12/22 02:24:22;;;;;;;20.15;11.15;;;-3.90;99.90;;;;;;12496515;28;20049;-36
2021/12/22 02:30:27;;;;;;;19.52;11.38;;;-4.10;99.90;;;;;;12493719;28;20106;-37
2021/12/22 02:36:37;;;;;;;18.15;10.88;;;-4.20;99.90;;;;;;12495999;28;20504;-36
2021/12/22 02:42:40;;;;;;;17.77;10.15;;;-3.90;99.90;;;;;;12498077;28;20053;-36
2021/12/22 02:48:42;;;;;;;17.30;10.15;;;-3.60;99.90;;;;;;12494736;28;20068;-35
2021/12/22 02:54:53;;;;;;;16.77;9.40;;;-3.80;99.90;;;;;;12495181;28;20156;-35
2021/12/22 03:01:25;;;;;;;16.05;9.40;;;-4.10;99.90;;;;;;12495099;28;20140;-35
2021/12/22 03:07:30;;;;;;;15.10;8.73;;;-4.10;99.90;;;;;;12498747;28;20099;-37
2021/12/22 03:13:32;;;;;;;17.20;9.88;;;-3.90;99.90;;;;;;12491429;28;20045;-36
2021/12/22 03:19:35;;;;;;;18.23;10.40;;;-3.90;99.90;;;;;;12492453;28;20045;-36
2021/12/22 03:25:39;;;;;;;17.02;9.75;;;-4.00;99.90;;;;;;12492201;28;20457;-37
2021/12/22 03:31:42;;;;;;;17.63;9.85;;;-4.00;99.90;;;;;;12494378;28;20045;-35
2021/12/22 03:37:46;;;;;;;20.20;10.00;;;-4.10;99.90;;;;;;12491137;28;20049;-35
2021/12/22 03:43:48;;;;;;;;;;;-4.10;99.90;;;;;;12495320;28;20489;-35
2021/12/22 03:49:51;;;;;;;24.48;10.15;;;-4.10;99.90;;;;;;12491463;28;19932;-35
2021/12/22 03:55:54;;;;;;;20.88;9.55;;;-4.20;99.90;;;;;;12490375;28;20053;-35
2021/12/22 04:02:01;;;;;;;29.88;11.27;;;-4.20;99.90;;;;;;12489892;28;20565;-35
2021/12/22 04:08:03;;;;;;;17.40;9.82;;;-4.80;99.90;;;;;;12489937;28;21091;-35
2021/12/22 04:14:06;;;;;;;27.10;10.80;;;-4.90;99.90;;;;;;12494722;28;20046;-37
2021/12/22 04:20:10;;;;;;;22.55;10.90;;;-4.80;99.90;;;;;;12496922;28;20420;-37
2021/12/22 04:26:13;;;;;;;19.40;10.67;;;-4.40;99.90;;;;;;12493848;28;21189;-37
2021/12/22 04:32:15;;;;;;;18.10;10.40;;;-4.50;99.90;;;;;;12498619;28;20042;-35
2021/12/22 04:38:18;;;;;;;15.18;8.80;;;-4.90;99.90;;;;;;12502473;28;20049;-35
2021/12/22 04:44:21;;;;;;;16.15;8.95;;;-5.00;99.90;;;;;;12502867;28;20152;-35
2021/12/22 04:50:24;;;;;;;17.95;9.90;;;-4.60;99.90;;;;;;12502162;28;20071;-36
2021/12/22 04:56:27;;;;;;;18.00;9.50;;;-4.50;99.90;;;;;;12551008;28;20418;-37
2021/12/22 05:02:30;;;;;;;15.07;8.77;;;-4.50;99.90;;;;;;12518857;28;20052;-35
2021/12/22 05:08:33;;;;;;;15.68;8.93;;;-4.50;99.90;;;;;;12500506;28;20794;-36
2021/12/22 05:14:35;;;;;;;17.30;9.60;;;-4.50;99.90;;;;;;12501542;28;20424;-35
2021/12/22 05:20:38;;;;;;;16.30;9.73;;;-5.00;99.90;;;;;;12508132;28;20084;-35
2021/12/22 05:26:41;;;;;;;14.52;8.75;;;-5.40;99.90;;;;;;12503357;28;20049;-37
2021/12/22 05:32:43;;;;;;;17.02;9.25;;;-5.30;99.90;;;;;;12500740;28;20046;-34
2021/12/22 05:38:46;;;;;;;15.32;8.88;;;-5.40;99.90;;;;;;12498242;28;20052;-36
2021/12/22 05:44:48;;;;;;;17.73;8.90;;;-5.00;99.90;;;;;;12502543;28;20111;-35
2021/12/22 05:50:53;;;;;;;14.68;8.43;;;-4.80;99.90;;;;;;12497472;28;20077;-36
2021/12/22 05:56:56;;;;;;;15.27;8.65;;;-4.70;99.90;;;;;;12494835;28;20156;-36
2021/12/22 06:02:58;;;;;;;14.70;8.50;;;-5.10;99.90;;;;;;12496252;28;20088;-35
2021/12/22 06:09:00;;;;;;;17.17;9.73;;;-5.30;99.90;;;;;;12500588;28;20056;-37
2021/12/22 06:15:03;;;;;;;15.52;8.75;;;-5.40;99.90;;;;;;12496905;28;20041;-36
2021/12/22 06:21:06;;;;;;;;;;;-5.00;99.90;;;;;;12497997;28;20053;-35
2021/12/22 06:27:08;;;;;;;17.42;8.82;;;-5.10;99.90;;;;;;12498214;28;19972;-36
2021/12/22 06:33:10;;;;;;;15.73;8.27;;;-5.30;99.90;;;;;;12492885;28;20041;-36
2021/12/22 06:39:15;;;;;;;14.35;8.20;;;-5.40;99.90;;;;;;12493428;28;20133;-35
2021/12/22 06:45:17;;;;;;;15.80;8.68;;;-5.50;99.90;;;;;;12495779;28;20076;-36
2021/12/22 06:51:19;;;;;;;16.35;8.13;;;-5.10;99.90;;;;;;12495420;28;20123;-37
2021/12/22 06:57:22;;;;;;;18.73;9.60;;;-4.90;99.90;;;;;;12490888;28;20467;-38
2021/12/22 07:03:24;;;;;;;15.60;8.30;;;-5.00;99.90;;;;;;12486575;28;20060;-37
2021/12/22 07:09:26;;;;;;;17.13;8.50;;;-5.10;99.90;;;;;;12487861;28;20045;-36
2021/12/22 07:15:28;;;;;;;16.02;7.95;;;-5.30;99.90;;;;;;12487978;28;20046;-37
2021/12/22 07:21:31;;;;;;;19.95;9.93;;;-5.50;99.90;;;;;;12488173;28;20098;-35
2021/12/22 07:27:33;;;;;;;16.52;9.05;;;-5.40;99.90;;;;;;12488436;28;20550;-35
2021/12/22 07:33:35;;;;;;;15.32;8.77;;;-5.10;99.90;;;;;;12484626;28;20045;-35
2021/12/22 07:39:37;;;;;;;17.23;9.27;;;-5.10;99.90;;;;;;12488005;28;20572;-37
2021/12/22 07:45:39;;;;;;;15.88;8.75;;;-5.00;99.90;;;;;;12491157;28;20681;-36
2021/12/22 07:51:41;;;;;;;18.65;9.27;;;-5.30;99.90;;;;;;12488499;28;20049;-37
2021/12/22 07:57:43;;;;;;;16.13;8.88;;;-5.30;99.90;;;;;;12488085;28;20098;-37
2021/12/22 08:03:45;;;;;;;16.15;9.20;;;-5.30;99.90;;;;;;12486041;28;20091;-37
2021/12/22 08:09:47;;;;;;;17.83;9.48;;;-5.20;99.90;;;;;;12487622;28;20467;-37
2021/12/22 08:15:49;;;;;;;19.08;9.55;;;-5.40;99.90;;;;;;12486054;28;20116;-37
2021/12/22 08:21:52;;;;;;;19.83;10.10;;;-5.30;99.90;;;;;;12492500;28;20882;-37
2021/12/22 08:28:00;;;;;;;16.52;8.93;;;-4.80;99.90;;;;;;12493622;28;20054;-35
2021/12/22 08:34:35;;;;;;;19.15;10.07;;;-4.40;99.90;;;;;;12565826;28;20516;-35
2021/12/22 08:40:44;;;;;;;20.02;10.23;;;-4.20;99.90;;;;;;12598695;28;20044;-37
2021/12/22 08:46:50;;;;;;;18.17;9.50;;;-4.40;99.90;;;;;;12593635;28;20048;-36
2021/12/22 08:53:00;;;;;;;17.80;9.82;;;-4.00;99.90;;;;;;12593437;28;20048;-36
2021/12/22 08:59:10;;;;;;;17.02;8.70;;;-4.10;99.90;;;;;;12594611;28;20047;-36
2021/12/22 09:05:20;;;;;;;19.88;10.07;;;-3.60;99.90;;;;;;12589861;28;20052;-37
2021/12/22 09:11:35;;;;;;;20.30;10.88;;;-3.30;99.90;;;;;;12585765;28;20079;-37
2021/12/22 09:17:52;;;;;;;24.23;11.60;;;-3.30;99.90;;;;;;12607187;28;20112;-35
2021/12/22 09:31:29;;;;;;;27.88;13.25;;;-3.10;99.90;;;;;;12596548;28;20051;-35
2021/12/22 09:37:31;;;;;;;24.17;11.27;;;-3.10;99.90;;;;;;12588209;28;20044;-37
2021/12/22 09:43:33;;;;;;;22.13;11.75;;;-3.10;99.90;;;;;;12581275;28;20405;-37
2021/12/22 09:55:43;;;;;;;23.67;11.98;;;-2.90;99.90;;;;;;12584157;28;20072;-37
2021/12/22 10:01:45;;;;;;;28.30;12.60;;;-2.60;99.90;;;;;;12581463;28;20056;-36
2021/12/22 10:08:05;;;;;;;25.08;12.38;;;-2.50;99.90;;;;;;12587355;28;20060;-37
2021/12/22 10:14:20;;;;;;;25.30;11.75;;;-2.40;99.90;;;;;;12584233;28;20075;-37
2021/12/22 10:20:22;;;;;;;22.98;12.50;;;-2.10;99.90;;;;;;12582992;28;20056;-36
2021/12/22 10:26:27;;;;;;;26.10;12.80;;;-1.90;99.90;;;;;;12582300;28;20143;-37
2021/12/22 10:32:32;;;;;;;28.73;13.63;;;-1.70;99.90;;;;;;12582051;28;20052;-38
2021/12/22 10:38:34;;;;;;;26.67;13.57;;;-1.70;99.90;;;;;;12584417;28;20044;-38
2021/12/22 10:44:41;;;;;;;22.23;11.57;;;-1.70;99.90;;;;;;12583960;28;20047;-38
2021/12/22 10:50:45;;;;;;;25.70;12.90;;;-1.40;99.90;;;;;;12582978;28;20687;-37
2021/12/22 10:56:47;;;;;;;32.08;14.18;;;-1.30;99.90;;;;;;12584391;28;20076;-37
2021/12/22 11:03:04;;;;;;;21.58;12.20;;;-1.10;99.90;;;;;;12579109;28;20059;-36
2021/12/22 11:09:18;;;;;;;21.67;12.20;;;-0.90;99.90;;;;;;12582251;28;20041;-38
2021/12/22 11:15:22;;;;;;;24.80;12.50;;;-0.70;99.90;;;;;;12582892;28;20060;-38
2021/12/22 11:21:31;;;;;;;17.27;10.80;;;-0.40;99.90;;;;;;12580887;28;20420;-38
2021/12/22 11:27:34;;;;;;;22.75;12.40;;;-0.40;99.90;;;;;;12583170;28;20043;-38
2021/12/22 11:33:39;;;;;;;20.70;11.40;;;-0.30;99.90;;;;;;12587810;28;20047;-37
2021/12/22 11:39:43;;;;;;;19.88;10.88;;;-0.10;99.90;;;;;;12585339;28;20044;-36
2021/12/22 11:45:47;;;;;;;21.00;11.65;;;0.10;99.90;;;;;;12586083;28;20516;-38
2021/12/22 11:51:49;;;;;;;22.25;11.63;;;0.10;99.90;;;;;;12580504;28;20101;-36
2021/12/22 11:58:16;;;;;;;21.90;12.70;;;0.30;99.90;;;;;;12585156;28;20553;-36
2021/12/22 12:04:19;;;;;;;20.45;11.18;;;0.20;99.90;;;;;;12573873;28;20650;-38
2021/12/22 12:10:47;;;;;;;20.27;11.07;;;0.50;99.90;;;;;;12587349;28;20051;-36
2021/12/22 12:23:31;;;;;;;23.48;12.80;;;0.20;99.90;;;;;;12582747;28;20501;-38
2021/12/22 12:29:55;;;;;;;20.42;11.38;;;0.20;99.90;;;;;;12578607;28;20047;-36
2021/12/22 12:36:08;;;;;;;20.15;11.30;;;0.30;99.90;;;;;;12584802;28;20097;-36
2021/12/22 12:42:10;;;;;;;20.23;12.07;;;0.40;99.90;;;;;;12580568;28;20059;-38
2021/12/22 12:48:32;;;;;;;19.92;11.93;;;0.50;99.90;;;;;;12582399;28;22227;-36
2021/12/22 12:54:39;;;;;;;19.20;10.98;;;0.40;99.90;;;;;;12591589;28;20049;-37
2021/12/22 13:00:46;;;;;;;21.85;12.38;;;0.30;99.90;;;;;;12584878;28;20105;-37
2021/12/22 13:06:51;;;;;;;20.85;12.13;;;0.20;99.90;;;;;;12588763;28;20061;-36
2021/12/22 13:13:15;;;;;;;22.85;13.05;;;0.10;99.90;;;;;;12585590;28;20479;-38
2021/12/22 13:19:43;;;;;;;23.15;12.50;;;0.10;99.90;;;;;;12581455;28;20098;-37
2021/12/22 13:25:50;;;;;;;24.33;12.73;;;0.20;99.90;;;;;;12587323;28;20469;-38
2021/12/22 13:32:08;;;;;;;21.63;11.32;;;0.00;99.90;;;;;;12585736;28;20044;-38
2021/12/22 13:38:19;;;;;;;22.13;12.80;;;0.10;99.90;;;;;;12586270;28;20447;-36
2021/12/22 13:44:21;;;;;;;27.35;13.40;;;0.00;99.90;;;;;;12591432;28;20059;-38
2021/12/22 13:50:27;;;;;;;22.33;13.05;;;-0.20;99.90;;;;;;12591811;28;20063;-38
2021/12/22 13:56:33;;;;;;;28.25;13.90;;;-0.30;99.90;;;;;;12579077;28;20504;-37
2021/12/22 14:02:36;;;;;;;24.38;13.38;;;-0.60;99.90;;;;;;12582933;28;20139;-36
2021/12/22 14:08:38;;;;;;;24.63;12.63;;;-0.70;99.90;;;;;;12584604;28;20052;-36
2021/12/22 14:14:45;;;;;;;20.48;11.55;;;-0.70;99.90;;;;;;12585081;28;20089;-37
2021/12/22 14:20:47;;;;;;;26.27;14.50;;;-0.80;99.90;;;;;;12585719;28;20101;-38
2021/12/22 14:26:48;;;;;;;27.17;15.90;;;-1.00;99.90;;;;;;12568091;28;20048;-37
2021/12/22 14:32:58;;;;;;;27.85;14.68;;;-1.20;99.90;;;;;;12583749;28;20060;-38
2021/12/22 14:39:00;;;;;;;30.15;15.07;;;-1.30;99.90;;;;;;12585155;28;20152;-38
2021/12/22 14:45:28;;;;;;;30.77;15.00;;;-1.40;99.90;;;;;;12581722;28;20056;-37
2021/12/22 14:51:30;;;;;;;32.17;15.85;;;-1.60;99.90;;;;;;12584700;28;20051;-37
2021/12/22 14:57:32;;;;;;;35.55;16.10;;;-1.70;99.90;;;;;;12581992;28;20057;-36
2021/12/22 15:03:35;;;;;;;29.95;14.73;;;-1.80;99.90;;;;;;12583236;28;20459;-39
2021/12/22 15:09:37;;;;;;;33.15;15.50;;;-1.90;99.90;;;;;;12583609;28;20052;-38
2021/12/22 15:15:39;;;;;;;37.15;16.95;;;-2.10;99.90;;;;;;12577988;28;20044;-38
2021/12/22 15:21:40;;;;;;;34.58;16.85;;;-2.10;99.90;;;;;;12583369;28;20053;-36
2021/12/22 15:27:42;;;;;;;35.97;16.90;;;-2.10;99.90;;;;;;12563999;28;20121;-36
2021/12/22 15:33:44;;;;;;;33.53;16.45;;;-2.30;99.90;;;;;;12580532;28;20056;-37
2021/12/22 15:39:46;;;;;;;34.17;16.55;;;-2.30;99.90;;;;;;12581550;28;20044;-38
2021/12/22 15:45:48;;;;;;;32.78;16.95;;;-2.40;99.90;;;;;;12583311;28;20499;-38
2021/12/22 15:51:53;;;;;;;34.83;17.45;;;-2.50;99.90;;;;;;12583870;28;20063;-37
2021/12/22 15:57:56;;;;;;;36.70;17.95;;;-2.60;99.90;;;;;;12582295;28;20044;-36
2021/12/22 16:03:58;;;;;;;39.78;18.38;;;-2.70;99.90;;;;;;12577236;28;20060;-37
2021/12/22 16:10:00;;;;;;;33.67;17.60;;;-2.70;99.90;;;;;;12580757;28;20052;-36
2021/12/22 16:16:02;;;;;;;36.88;18.83;;;-2.70;99.90;;;;;;12585594;28;20141;-36
2021/12/22 16:22:05;;;;;;;36.60;19.23;;;-2.80;99.90;;;;;;12580841;28;20053;-36
2021/12/22 16:28:08;;;;;;;33.77;18.37;;;-2.80;99.90;;;;;;12591329;28;20052;-37
2021/12/22 16:34:10;;;;;;;36.60;17.50;;;-2.90;99.90;;;;;;12592519;28;20579;-39
2021/12/22 16:40:13;;;;;;;34.83;18.20;;;-3.00;99.90;;;;;;12593274;28;20100;-36
2021/12/22 16:46:15;;;;;;;38.10;18.27;;;-3.00;99.90;;;;;;12592723;28;20040;-37
2021/12/22 16:52:18;;;;;;;35.28;18.38;;;-3.00;99.90;;;;;;12599597;28;20052;-38
2021/12/22 16:58:20;;;;;;;34.20;17.20;;;-3.00;99.90;;;;;;12593428;28;20131;-38
2021/12/22 17:04:22;;;;;;;32.50;17.75;;;-3.10;99.90;;;;;;12594471;28;20052;-36
2021/12/22 17:10:24;;;;;;;36.85;17.60;;;-3.10;99.90;;;;;;12575416;28;20098;-37
2021/12/22 17:16:27;;;;;;;35.08;18.42;;;-3.10;99.90;;;;;;12596038;28;20862;-37
2021/12/22 17:22:33;;;;;;;35.65;16.95;;;-3.20;99.90;;;;;;12590383;28;20135;-38
2021/12/22 17:28:37;;;;;;;36.85;17.83;;;-3.20;99.90;;;;;;12589372;28;20048;-36
2021/12/22 17:34:41;;;;;;;35.72;15.43;;;-3.30;99.90;;;;;;12591102;28;20054;-37
2021/12/22 17:40:43;;;;;;;31.38;16.23;;;-3.20;99.90;;;;;;12587984;28;20477;-36
2021/12/22 17:46:45;;;;;;;31.17;16.08;;;-3.30;99.90;;;;;;12591637;28;20131;-37
2021/12/22 17:52:47;;;;;;;29.35;16.10;;;-3.20;99.90;;;;;;12595390;28;20044;-36
2021/12/22 17:58:50;;;;;;;31.40;16.13;;;-3.20;99.90;;;;;;12588018;28;20146;-37
2021/12/22 18:04:55;;;;;;;31.02;15.82;;;-3.20;99.90;;;;;;12589297;28;20048;-36
2021/12/22 18:10:57;;;;;;;33.47;18.70;;;-3.20;99.90;;;;;;12588001;28;20130;-36
2021/12/22 18:16:59;;;;;;;34.67;17.83;;;-3.20;99.90;;;;;;12591682;28;20052;-38
2021/12/22 18:23:01;;;;;;;36.70;18.15;;;-3.20;99.90;;;;;;12590697;28;20114;-36
2021/12/22 18:29:06;;;;;;;31.73;16.63;;;-3.20;99.90;;;;;;12589061;28;20538;-38
2021/12/22 18:35:12;;;;;;;32.28;16.38;;;-3.20;99.90;;;;;;12589379;28;20575;-38
2021/12/22 18:41:23;;;;;;;26.92;15.35;;;-3.20;99.90;;;;;;12591764;28;20506;-38
2021/12/22 18:47:26;;;;;;;33.33;17.38;;;-3.20;99.90;;;;;;12587020;28;20097;-37
2021/12/22 18:53:29;;;;;;;31.88;16.48;;;-3.00;99.90;;;;;;12596221;28;20085;-36
2021/12/22 18:59:37;;;;;;;37.00;18.98;;;-3.10;99.90;;;;;;12596582;28;20040;-35
2021/12/22 19:05:41;;;;;;;36.50;19.42;;;-3.20;99.90;;;;;;12593798;28;20535;-37
2021/12/22 19:11:43;;;;;;;34.70;18.65;;;-3.20;99.90;;;;;;12591108;28;20044;-37
2021/12/22 19:17:45;;;;;;;32.28;18.63;;;-3.30;99.90;;;;;;12587302;28;20071;-37
2021/12/22 19:23:48;;;;;;;37.17;19.73;;;-3.20;99.90;;;;;;12590731;28;20090;-36
2021/12/22 19:29:49;;;;;;;40.00;20.45;;;-3.30;99.90;;;;;;12591816;28;20455;-38
2021/12/22 19:35:52;;;;;;;39.92;20.85;;;-3.30;99.90;;;;;;12584055;28;20114;-36
2021/12/22 19:41:56;;;;;;;34.30;20.40;;;-3.30;99.90;;;;;;12593832;28;20139;-37
2021/12/22 19:47:59;;;;;;;35.20;19.33;;;-3.30;99.90;;;;;;12589987;28;20060;-36
2021/12/22 19:54:02;;;;;;;33.33;17.73;;;-3.30;99.90;;;;;;12590874;28;20518;-36
2021/12/22 20:00:09;;;;;;;36.55;19.08;;;-3.30;99.90;;;;;;12590881;28;20523;-36
2021/12/22 20:06:12;;;;;;;31.02;17.23;;;-3.30;99.90;;;;;;12586617;28;20053;-37
2021/12/22 20:12:15;;;;;;;35.65;19.48;;;-3.20;99.90;;;;;;12591477;28;20076;-37
2021/12/22 20:18:17;;;;;;;42.78;21.67;;;-3.20;99.90;;;;;;12591223;28;20582;-37
2021/12/22 20:24:19;;;;;;;38.72;19.42;;;-3.20;99.90;;;;;;12589413;28;20873;-35
2021/12/22 20:30:26;;;;;;;32.80;17.98;;;-3.20;99.90;;;;;;12590780;28;20048;-35
2021/12/22 20:36:28;;;;;;;34.20;18.23;;;-3.20;99.90;;;;;;12589053;28;20048;-38
2021/12/22 20:42:30;;;;;;;39.03;19.73;;;-3.20;99.90;;;;;;12589920;28;20044;-37
2021/12/22 20:48:32;;;;;;;22.38;13.50;;;-3.20;99.90;;;;;;12587672;28;20101;-37
2021/12/22 20:54:34;;;;;;;28.33;14.40;;;-3.10;99.90;;;;;;12572887;28;20040;-37
2021/12/22 21:00:40;;;;;;;23.45;13.85;;;-2.90;99.90;;;;;;12591164;28;20404;-37
2021/12/22 21:06:47;;;;;;;21.80;12.85;;;-3.00;99.90;;;;;;12592401;28;20056;-37
2021/12/22 21:12:57;;;;;;;22.92;13.32;;;-3.00;99.90;;;;;;12594192;28;20063;-37
2021/12/22 21:19:02;;;;;;;24.85;13.07;;;-2.80;99.90;;;;;;12582162;28;20447;-37
2021/12/22 21:25:06;;;;;;;23.52;12.35;;;-2.80;99.90;;;;;;12598474;28;20521;-35
2021/12/22 21:31:09;;;;;;;22.73;13.00;;;-2.40;99.90;;;;;;12567622;28;20088;-35
2021/12/22 21:37:12;;;;;;;25.55;14.07;;;-2.50;99.90;;;;;;12595080;28;20060;-35
2021/12/22 21:43:16;;;;;;;21.63;11.70;;;-2.70;99.90;;;;;;12581091;28;20107;-36
2021/12/22 21:49:18;;;;;;;24.08;13.07;;;-2.70;99.90;;;;;;12600559;28;20063;-37
2021/12/22 21:55:31;;;;;;;24.38;13.35;;;-2.70;99.90;;;;;;12597758;28;20048;-36
2021/12/22 22:01:35;;;;;;;;;;;-2.70;99.90;;;;;;12601969;28;20052;-37
2021/12/22 22:07:40;;;;;;;32.72;17.88;;;-2.80;99.90;;;;;;12580873;28;19964;-38
2021/12/22 22:13:43;;;;;;;35.42;19.17;;;-2.90;99.90;;;;;;12597558;28;20124;-37
2021/12/22 22:19:49;;;;;;;37.10;19.05;;;-2.90;99.90;;;;;;12582154;28;20072;-37
2021/12/22 22:25:52;;;;;;;40.00;21.38;;;-3.00;99.90;;;;;;12594081;28;20393;-38
2021/12/22 22:31:54;;;;;;;36.75;19.08;;;-2.90;99.90;;;;;;12599456;28;20055;-37
2021/12/22 22:38:02;;;;;;;26.98;13.30;;;-3.00;99.90;;;;;;12597048;28;20053;-38
2021/12/22 22:44:05;;;;;;;22.10;12.80;;;-2.70;99.90;;;;;;12594055;28;20049;-36
2021/12/22 22:50:11;;;;;;;25.33;13.82;;;-2.50;99.90;;;;;;12595918;28;20043;-37
2021/12/22 22:56:13;;;;;;;25.33;13.98;;;-2.40;99.90;;;;;;12597111;28;20060;-37
2021/12/22 23:02:16;;;;;;;22.15;13.10;;;-2.20;99.90;;;;;;12593564;28;20098;-37
2021/12/22 23:08:19;;;;;;;26.35;13.10;;;-2.00;99.90;;;;;;12577056;28;20066;-38
2021/12/22 23:14:22;;;;;;;24.40;12.43;;;-1.80;99.90;;;;;;12593512;28;20052;-36
2021/12/22 23:20:25;;;;;;;19.25;11.25;;;-1.90;99.90;;;;;;12596874;28;20040;-35
2021/12/22 23:26:27;;;;;;;19.73;11.57;;;-1.80;99.90;;;;;;12595732;28;20044;-36
2021/12/22 23:32:30;;;;;;;23.33;12.05;;;-1.80;99.90;;;;;;12590800;28;20063;-36
2021/12/22 23:51:02;;;;;;;24.63;13.57;;;-2.10;99.90;;;;;;12594005;28;20072;-38
2021/12/22 23:57:07;;;;;;;23.52;12.40;;;-2.10;99.90;;;;;;12596283;28;20352;-38
